Pagina principale
METAR-TAF:

METAR-TAF

Aeroporti :

Alghero, Italia

Aeroporto di Alghero-Fertilia

latitudine: 40-38N, longitudine: 008-17E, altezza: 23 m

Osservazione

Il bollettino è stato emesso 12 minuti fa, alle 20:20 UTC
Vento 6 kt da ovest, variando fra sud-ovest e nord-ovest
Temperature 23°C
Umidità 65%
Pressione 1010 hPa
Visibilità 10 km o più
nessuna nube inferiore a 1500 m e nessun cumulonembo

METAR: LIEA 252020Z 28006KT 230V320 CAVOK 23/16 Q1010

Ora: 22:32 (20:32 UTC)

Previsione

Il bollettino è stato emesso 3 ore e 32 minuti fa, alle 17:00 UTC
Previsione valida dal 25 alle 18 UTC al 26 alle 18 UTC
Vento 16 kt da ovest/nord-ovest con raffiche fino a 26 kt
Visibilità 10 km o più
Nubi sparse ad un'altezza di 2500 ft

TAF: LIEA 251700Z 2518/2618 29016G26KT 9999 SCT025

Osservazioni e previsioni meteorologiche di più di 4000 aeroporti (messaggi METAR e TAF).

Le stazioni disponibili sono rappresentate dai dischi gialli e rossi sulla carta.

Puntare il mouse per vedere il nome della stazione.

Clicca sopra per visualizzare le osservazioni e previsioni meteorologiche.

Per cambiare la mappa : fare clic sui pulsanti verdi con una croce nera per ingrandire, il pulsante verde con un trattino per diminuire, o sulla freccia verde per le mappe adiacenti.


METAR-TAF: